createdAt,value
2022-08-07T00:04:12.871Z,91
2022-08-07T00:09:17.970Z,91.5
2022-08-07T00:14:23.082Z,92
2022-08-07T00:19:29.062Z,91.5
2022-08-07T00:24:33.311Z,91.5
2022-08-07T00:29:38.410Z,92.5
2022-08-07T00:34:44.561Z,93
2022-08-07T00:39:50.605Z,94
2022-08-07T00:44:56.710Z,94
2022-08-07T00:50:02.802Z,94.5
2022-08-07T00:55:08.903Z,94.5
2022-08-07T01:00:14.995Z,94.5
2022-08-07T01:05:21.083Z,95.5
2022-08-07T01:10:27.184Z,95.5
2022-08-07T01:15:33.273Z,94
2022-08-07T01:20:39.375Z,94
2022-08-07T01:25:45.466Z,93
2022-08-07T01:30:51.989Z,91
2022-08-07T01:35:56.704Z,91.5
2022-08-07T01:41:02.765Z,91
2022-08-07T01:46:08.873Z,91.5
2022-08-07T01:51:14.962Z,93
2022-08-07T01:56:21.086Z,94
2022-08-07T02:01:27.146Z,94.5
2022-08-07T02:06:33.248Z,94.5
2022-08-07T02:11:38.366Z,96
2022-08-07T02:16:43.472Z,95.5
2022-08-07T02:21:49.571Z,95.5
2022-08-07T02:26:55.657Z,95.5
2022-08-07T02:32:01.753Z,95.5
2022-08-07T02:37:07.854Z,96
2022-08-07T02:42:13.938Z,96
2022-08-07T02:47:20.039Z,97
2022-08-07T02:52:26.138Z,97
2022-08-07T02:57:32.227Z,97
2022-08-07T03:02:38.315Z,97.5
2022-08-07T03:07:44.428Z,97
2022-08-07T03:12:50.520Z,97
2022-08-07T03:17:56.618Z,97.5
2022-08-07T03:23:01.732Z,97.5
2022-08-07T03:28:08.753Z,98
2022-08-07T03:33:13.929Z,98
2022-08-07T03:38:20.821Z,98
2022-08-07T03:43:26.116Z,98.5
2022-08-07T03:48:32.231Z,99.5
2022-08-07T03:53:38.303Z,98
2022-08-07T03:58:43.426Z,98
2022-08-07T04:03:49.372Z,98.5
2022-08-07T04:08:53.669Z,99.5
2022-08-07T04:13:58.766Z,99.5
2022-08-07T04:19:03.924Z,98
2022-08-07T04:24:08.997Z,97.5
2022-08-07T04:29:15.108Z,98.5
2022-08-07T04:34:21.182Z,98
2022-08-07T04:39:27.290Z,98
2022-08-07T04:44:33.396Z,97.5
2022-08-07T04:49:39.485Z,98
2022-08-07T04:54:45.600Z,97
2022-08-07T04:59:51.657Z,97.5
2022-08-07T05:04:57.757Z,97
2022-08-07T05:10:03.874Z,97
2022-08-07T05:15:09.950Z,96.5
2022-08-07T05:20:16.057Z,96.5
2022-08-07T05:25:22.154Z,96.5
2022-08-07T05:30:29.909Z,96
2022-08-07T05:35:33.338Z,97
2022-08-07T05:40:39.475Z,96.5
2022-08-07T05:45:45.546Z,94.5
2022-08-07T05:50:51.640Z,86
2022-08-07T05:55:57.743Z,86
2022-08-07T06:01:04.794Z,84.5
2022-08-07T06:06:09.384Z,83.5
2022-08-07T06:11:14.059Z,83.5
2022-08-07T06:16:19.208Z,81
2022-08-07T06:21:24.341Z,76.5
2022-08-07T06:26:30.388Z,77
2022-08-07T06:31:36.482Z,75.5
2022-08-07T06:36:42.563Z,72.5
2022-08-07T06:41:48.643Z,70
2022-08-07T06:46:54.856Z,70.5
2022-08-07T06:52:00.840Z,68
2022-08-07T06:57:06.951Z,68.5
2022-08-07T07:02:13.041Z,66
2022-08-07T07:07:19.161Z,65.5
2022-08-07T07:12:25.217Z,64
2022-08-07T07:17:31.344Z,63
2022-08-07T07:22:37.413Z,60.5
2022-08-07T07:27:48.731Z,62
2022-08-07T07:32:48.621Z,59.5
2022-08-07T07:37:54.709Z,58
2022-08-07T07:43:00.815Z,60
2022-08-07T07:48:06.898Z,57
2022-08-07T07:53:12.991Z,58.5
2022-08-07T07:58:19.089Z,57.5
2022-08-07T08:03:24.201Z,55
2022-08-07T08:08:32.129Z,56.5
2022-08-07T08:13:35.412Z,56.5
2022-08-07T08:18:41.494Z,56
2022-08-07T08:23:46.603Z,55
2022-08-07T08:28:51.718Z,54.5
2022-08-07T08:33:57.849Z,53.5
2022-08-07T08:39:03.938Z,54
2022-08-07T08:44:09.993Z,49
2022-08-07T08:49:16.101Z,46.5
2022-08-07T08:54:22.220Z,45
2022-08-07T08:59:28.307Z,42
2022-08-07T09:04:34.406Z,40
2022-08-07T09:09:40.498Z,38
2022-08-07T09:14:46.561Z,33.5
2022-08-07T09:19:52.654Z,34
2022-08-07T09:24:58.761Z,28.5
2022-08-07T09:30:04.892Z,35.5
2022-08-07T09:35:09.973Z,36
2022-08-07T09:40:16.055Z,33.5
2022-08-07T09:45:22.156Z,31.5
2022-08-07T09:50:28.262Z,30
2022-08-07T09:55:34.342Z,30.5
2022-08-07T10:00:40.432Z,34.5
2022-08-07T10:05:57.988Z,34
2022-08-07T10:10:51.665Z,28.5
2022-08-07T10:15:56.794Z,30.5
2022-08-07T10:21:02.859Z,30.5
2022-08-07T10:26:08.972Z,25.5
2022-08-07T10:31:15.076Z,26.5
2022-08-07T10:36:21.155Z,26
2022-08-07T10:41:27.253Z,27.5
2022-08-07T10:46:33.353Z,24
2022-08-07T10:51:39.461Z,26.5
2022-08-07T10:56:45.575Z,26
2022-08-07T11:01:51.628Z,23.5
2022-08-07T11:06:57.745Z,24
2022-08-07T11:12:03.826Z,25.5
2022-08-07T11:17:09.993Z,25.5
2022-08-07T11:22:15.130Z,25.5
2022-08-07T11:27:21.193Z,25.5
2022-08-07T11:32:27.300Z,24.5
2022-08-07T11:37:33.395Z,24
2022-08-07T11:42:39.497Z,22.5
2022-08-07T11:47:45.610Z,25
2022-08-07T11:52:51.688Z,24.5
2022-08-07T11:57:56.807Z,25
2022-08-07T12:03:01.923Z,23
2022-08-07T12:08:08.024Z,24.5
2022-08-07T12:13:14.112Z,24.5
2022-08-07T12:18:20.201Z,23.5
2022-08-07T12:23:26.312Z,25
2022-08-07T12:28:32.404Z,25.5
2022-08-07T12:33:46.261Z,26.5
2022-08-07T12:38:44.609Z,28
2022-08-07T12:43:58.760Z,29.5
2022-08-07T12:48:56.787Z,32
2022-08-07T12:54:02.881Z,34
2022-08-07T12:59:08.982Z,33
2022-08-07T13:04:15.121Z,32
2022-08-07T13:09:20.233Z,30.5
2022-08-07T13:14:26.309Z,31
2022-08-07T13:19:32.394Z,29
2022-08-07T13:24:38.520Z,31.5
2022-08-07T13:29:44.602Z,32.5
2022-08-07T13:34:50.694Z,32.5
2022-08-07T13:40:06.720Z,33.5
2022-08-07T13:45:01.906Z,33
2022-08-07T13:50:07.054Z,33
2022-08-07T13:55:12.124Z,34.5
2022-08-07T14:00:17.233Z,33
2022-08-07T14:05:22.365Z,31.5
2022-08-07T14:10:27.476Z,31
2022-08-07T14:15:33.555Z,33
2022-08-07T14:20:39.654Z,33
2022-08-07T14:25:45.742Z,31.5
2022-08-07T14:30:51.856Z,33
2022-08-07T14:35:57.940Z,29
2022-08-07T14:41:04.022Z,29.5
2022-08-07T14:46:10.151Z,30.5
2022-08-07T14:51:16.243Z,31
2022-08-07T14:56:22.338Z,33
2022-08-07T15:01:40.346Z,34
2022-08-07T15:06:34.543Z,34
2022-08-07T15:11:39.632Z,34
2022-08-07T15:16:44.764Z,32.5
2022-08-07T15:21:49.838Z,33
2022-08-07T15:26:54.946Z,34
2022-08-07T15:32:01.050Z,35
2022-08-07T15:37:07.192Z,35
2022-08-07T15:42:13.248Z,35
2022-08-07T15:47:19.379Z,34
2022-08-07T15:52:25.558Z,32.5
2022-08-07T15:57:31.537Z,33
2022-08-07T16:02:37.613Z,33.5
2022-08-07T16:07:43.699Z,34
2022-08-07T16:12:49.808Z,35
2022-08-07T16:17:55.907Z,34.5
2022-08-07T16:23:02.003Z,33.5
2022-08-07T16:28:08.101Z,33.5
2022-08-07T16:33:13.191Z,34
2022-08-07T16:38:19.317Z,34.5
2022-08-07T16:43:25.393Z,35.5
2022-08-07T16:48:31.482Z,34.5
2022-08-07T16:53:37.583Z,34.5
2022-08-07T16:58:43.675Z,36.5
2022-08-07T17:03:49.775Z,34.5
2022-08-07T17:08:54.897Z,34.5
2022-08-07T17:14:00.012Z,35.5
2022-08-07T17:19:05.143Z,33
2022-08-07T17:24:10.231Z,31.5
2022-08-07T17:29:16.329Z,34.5
2022-08-07T17:34:22.439Z,39
2022-08-07T17:39:28.510Z,32
2022-08-07T17:44:34.613Z,35.5
2022-08-07T17:49:40.691Z,36.5
2022-08-07T17:54:46.789Z,35
2022-08-07T17:59:52.886Z,36.5
2022-08-07T18:04:58.992Z,38.5
2022-08-07T18:10:05.079Z,42
2022-08-07T18:15:11.161Z,45.5
2022-08-07T18:20:17.295Z,45
2022-08-07T18:25:23.397Z,44.5
2022-08-07T18:30:28.492Z,47.5
2022-08-07T18:35:34.582Z,49
2022-08-07T18:40:40.698Z,47.5
2022-08-07T18:45:46.773Z,49.5
2022-08-07T18:50:52.891Z,49
2022-08-07T18:55:58.978Z,49
2022-08-07T19:01:05.061Z,50.5
2022-08-07T19:06:10.167Z,49.5
2022-08-07T19:11:15.456Z,49.5
2022-08-07T19:16:24.598Z,51
2022-08-07T19:21:26.505Z,51.5
2022-08-07T19:26:31.610Z,50.5
2022-08-07T19:31:37.703Z,52
2022-08-07T19:36:43.808Z,51.5
2022-08-07T19:41:49.900Z,52
2022-08-07T19:46:55.978Z,52.5
2022-08-07T19:52:02.089Z,52.5
2022-08-07T19:57:08.171Z,54
2022-08-07T20:02:14.266Z,54
2022-08-07T20:07:20.368Z,54.5
2022-08-07T20:12:26.459Z,55
2022-08-07T20:17:32.552Z,55
2022-08-07T20:22:38.635Z,55.5
2022-08-07T20:27:44.739Z,56.5
2022-08-07T20:32:49.866Z,55
2022-08-07T20:37:55.965Z,56
2022-08-07T20:43:02.053Z,56.5
2022-08-07T20:48:08.140Z,56.5
2022-08-07T20:53:14.241Z,53.5
2022-08-07T20:58:20.322Z,56.5
2022-08-07T21:03:26.420Z,57
2022-08-07T21:08:31.535Z,56.5
2022-08-07T21:13:36.650Z,58
2022-08-07T21:18:41.767Z,58
2022-08-07T21:23:46.870Z,59.5
2022-08-07T21:28:52.968Z,60
2022-08-07T21:33:59.061Z,61
2022-08-07T21:39:05.532Z,59.5
2022-08-07T21:44:11.270Z,60
2022-08-07T21:49:17.352Z,61.5
2022-08-07T21:54:23.433Z,61
2022-08-07T21:59:29.540Z,61.5
2022-08-07T22:04:37.440Z,61.5
2022-08-07T22:09:41.728Z,64
2022-08-07T22:14:47.821Z,62.5
2022-08-07T22:19:53.923Z,62.5
2022-08-07T22:25:00.014Z,64
2022-08-07T22:30:05.138Z,64.5
2022-08-07T22:35:11.233Z,64
2022-08-07T22:40:17.316Z,64.5
2022-08-07T22:45:23.411Z,65
2022-08-07T22:50:29.510Z,65.5
2022-08-07T22:55:35.591Z,66.5
2022-08-07T23:00:41.678Z,66
2022-08-07T23:05:46.803Z,68
2022-08-07T23:10:51.925Z,69
2022-08-07T23:16:04.213Z,67
2022-08-07T23:21:02.132Z,68
2022-08-07T23:26:08.226Z,69.5
2022-08-07T23:31:14.330Z,71
2022-08-07T23:36:20.431Z,75.5
2022-08-07T23:41:26.507Z,77
2022-08-07T23:46:32.618Z,78
2022-08-07T23:52:53.425Z,79
2022-08-07T23:56:44.798Z,81
